createdAt,value
2018-11-25T00:01:01.785Z,244.77
2018-11-25T00:03:31.831Z,235.23
2018-11-25T00:06:02.027Z,255.00
2018-11-25T00:08:32.643Z,264.57
2018-11-25T00:11:02.560Z,265.13
2018-11-25T00:13:32.673Z,281.30
2018-11-25T00:16:02.794Z,260.47
2018-11-25T00:18:32.805Z,268.63
2018-11-25T00:21:02.840Z,267.87
2018-11-25T00:23:33.154Z,263.67
2018-11-25T00:26:03.509Z,290.47
2018-11-25T00:28:33.719Z,309.47
2018-11-25T00:31:09.401Z,293.83
2018-11-25T00:33:35.001Z,282.87
2018-11-25T00:36:04.768Z,266.30
2018-11-25T00:38:34.917Z,255.30
2018-11-25T00:41:04.854Z,262.73
2018-11-25T00:43:34.910Z,270.43
2018-11-25T00:46:04.597Z,321.57
2018-11-25T00:48:35.195Z,302.20
2018-11-25T00:51:04.951Z,304.50
2018-11-25T00:53:36.007Z,322.00
2018-11-25T00:56:06.391Z,378.27
2018-11-25T00:58:36.837Z,335.40
2018-11-25T01:01:06.686Z,338.13
2018-11-25T01:03:36.981Z,323.33
2018-11-25T01:06:06.804Z,337.30
2018-11-25T01:08:37.124Z,337.73
2018-11-25T01:11:07.261Z,347.50
2018-11-25T01:13:37.629Z,345.07
2018-11-25T01:16:07.714Z,324.53
2018-11-25T01:18:38.032Z,313.90
2018-11-25T01:21:07.993Z,318.03
2018-11-25T01:23:38.289Z,325.13
2018-11-25T01:26:08.028Z,311.80
2018-11-25T01:28:38.420Z,327.50
2018-11-25T01:31:08.554Z,309.67
2018-11-25T01:33:39.233Z,310.00
2018-11-25T01:36:09.273Z,312.30
2018-11-25T01:38:39.677Z,315.53
2018-11-25T01:41:09.559Z,304.20
2018-11-25T01:43:39.518Z,321.67
2018-11-25T01:46:09.642Z,317.03
2018-11-25T01:48:39.878Z,328.27
2018-11-25T01:51:10.395Z,333.63
2018-11-25T01:53:40.541Z,318.47
2018-11-25T01:56:10.756Z,326.20
2018-11-25T01:58:40.794Z,334.90
2018-11-25T02:01:10.716Z,340.10
2018-11-25T02:03:40.905Z,344.57
2018-11-25T02:06:11.515Z,355.90
2018-11-25T02:08:41.322Z,344.50
2018-11-25T02:11:11.485Z,342.10
2018-11-25T02:13:41.793Z,334.50
2018-11-25T02:16:12.157Z,332.47
2018-11-25T02:18:42.661Z,323.00
2018-11-25T02:21:12.967Z,331.37
2018-11-25T02:23:42.952Z,322.33
2018-11-25T02:26:13.281Z,311.23
2018-11-25T02:28:43.678Z,321.63
2018-11-25T02:31:15.746Z,308.63
2018-11-25T02:33:46.843Z,299.37
2018-11-25T02:36:17.596Z,304.13
2018-11-25T02:38:47.676Z,298.93
2018-11-25T02:41:17.840Z,298.27
2018-11-25T02:43:48.201Z,295.97
2018-11-25T02:46:18.239Z,298.60
2018-11-25T02:48:48.315Z,302.83
2018-11-25T02:51:18.600Z,297.10
2018-11-25T02:53:50.226Z,296.20
2018-11-25T02:56:20.728Z,302.77
2018-11-25T02:58:50.985Z,297.67
2018-11-25T03:01:22.689Z,280.27
2018-11-25T03:03:53.285Z,284.30
2018-11-25T03:06:23.864Z,294.87
2018-11-25T03:08:54.040Z,282.37
2018-11-25T03:11:23.923Z,290.43
2018-11-25T03:13:54.847Z,281.63
2018-11-25T03:16:24.654Z,284.13
2018-11-25T03:18:56.033Z,288.53
2018-11-25T03:21:25.714Z,282.37
2018-11-25T03:23:56.026Z,269.20
2018-11-25T03:26:26.197Z,273.67
2018-11-25T03:28:56.433Z,276.63
2018-11-25T03:31:26.716Z,267.50
2018-11-25T03:33:57.792Z,276.33
2018-11-25T03:36:28.506Z,269.00
2018-11-25T03:38:59.240Z,263.57
2018-11-25T03:41:29.469Z,275.70
2018-11-25T03:44:00.995Z,269.73
2018-11-25T03:46:31.368Z,261.43
2018-11-25T03:49:01.795Z,262.50
2018-11-25T03:51:32.484Z,257.90
2018-11-25T03:54:02.602Z,258.80
2018-11-25T03:56:32.784Z,264.20
2018-11-25T03:59:03.110Z,259.63
2018-11-25T04:01:33.114Z,250.93
2018-11-25T04:04:03.831Z,267.10
2018-11-25T04:06:33.802Z,254.63
2018-11-25T04:09:04.363Z,240.60
2018-11-25T04:11:34.179Z,232.60
2018-11-25T04:14:04.606Z,229.90
2018-11-25T04:16:35.202Z,230.03
2018-11-25T04:19:07.006Z,216.27
2018-11-25T04:21:37.780Z,214.93
2018-11-25T04:24:07.677Z,219.50
2018-11-25T04:26:37.795Z,211.57
2018-11-25T04:29:07.875Z,226.27
2018-11-25T04:31:38.463Z,217.23
2018-11-25T04:34:08.430Z,215.10
2018-11-25T04:36:38.882Z,212.37
2018-11-25T04:39:09.490Z,217.77
2018-11-25T04:41:39.890Z,210.53
2018-11-25T04:44:10.553Z,209.23
2018-11-25T04:46:40.958Z,216.40
2018-11-25T04:49:11.086Z,216.70
2018-11-25T04:51:41.522Z,216.63
2018-11-25T04:54:15.683Z,212.17
2018-11-25T04:56:46.392Z,219.03
2018-11-25T04:59:17.277Z,208.73
2018-11-25T05:01:47.523Z,208.90
2018-11-25T05:04:17.281Z,209.73
2018-11-25T05:06:47.470Z,199.60
2018-11-25T05:09:17.473Z,197.63
2018-11-25T05:11:47.480Z,202.30
2018-11-25T05:14:17.597Z,204.47
2018-11-25T05:16:47.676Z,196.60
2018-11-25T05:19:17.421Z,205.87
2018-11-25T05:21:47.830Z,211.80
2018-11-25T05:24:17.603Z,200.20
2018-11-25T05:26:47.681Z,203.70
2018-11-25T05:29:18.549Z,195.77
2018-11-25T05:31:48.839Z,199.03
2018-11-25T05:34:18.932Z,198.00
2018-11-25T05:36:49.387Z,199.10
2018-11-25T05:39:19.670Z,202.00
2018-11-25T05:41:52.145Z,205.23
2018-11-25T05:44:23.361Z,195.30
2018-11-25T05:46:53.291Z,196.67
2018-11-25T05:49:24.535Z,199.77
2018-11-25T05:51:54.582Z,207.17
2018-11-25T05:54:25.306Z,201.50
2018-11-25T05:56:54.899Z,199.73
2018-11-25T05:59:25.403Z,186.27
2018-11-25T06:01:55.884Z,183.00
2018-11-25T06:04:26.047Z,180.53
2018-11-25T06:06:57.963Z,183.83
2018-11-25T06:09:27.759Z,179.67
2018-11-25T06:11:57.804Z,183.00
2018-11-25T06:14:27.950Z,184.40
2018-11-25T06:16:57.667Z,184.30
2018-11-25T06:19:28.006Z,184.20
2018-11-25T06:21:57.683Z,182.93
2018-11-25T06:24:27.840Z,181.50
2018-11-25T06:26:58.649Z,187.10
2018-11-25T06:29:28.170Z,187.67
2018-11-25T06:31:58.366Z,190.17
2018-11-25T06:34:28.193Z,193.23
2018-11-25T06:36:58.590Z,212.47
2018-11-25T06:39:28.413Z,214.60
2018-11-25T06:41:58.717Z,211.60
2018-11-25T06:44:28.716Z,206.87
2018-11-25T06:46:59.843Z,184.80
2018-11-25T06:49:29.608Z,169.27
2018-11-25T06:51:59.976Z,160.00
2018-11-25T06:54:30.085Z,158.87
2018-11-25T06:57:00.479Z,158.00
2018-11-25T06:59:30.498Z,159.97
2018-11-25T07:02:00.718Z,159.60
2018-11-25T07:04:30.729Z,163.50
2018-11-25T07:07:01.446Z,165.70
2018-11-25T07:09:32.174Z,175.30
2018-11-25T07:12:02.660Z,172.87
2018-11-25T07:14:32.644Z,197.10
2018-11-25T07:17:02.769Z,189.77
2018-11-25T07:19:33.458Z,188.10
2018-11-25T07:22:03.548Z,183.03
2018-11-25T07:24:33.166Z,176.20
2018-11-25T07:27:03.417Z,179.77
2018-11-25T07:29:33.761Z,176.00
2018-11-25T07:32:03.887Z,184.93
2018-11-25T07:34:34.233Z,180.43
2018-11-25T07:37:04.642Z,177.57
2018-11-25T07:39:35.400Z,168.40
2018-11-25T07:42:07.676Z,161.03
2018-11-25T07:44:37.550Z,156.07
2018-11-25T07:47:08.926Z,160.40
2018-11-25T07:49:39.249Z,160.00
2018-11-25T07:52:15.119Z,154.27
2018-11-25T07:54:46.838Z,160.63
2018-11-25T07:57:17.242Z,160.17
2018-11-25T07:59:47.836Z,165.47
2018-11-25T08:02:18.263Z,163.13
2018-11-25T08:04:48.600Z,169.30
2018-11-25T08:07:19.162Z,162.53
2018-11-25T08:09:49.621Z,163.23
2018-11-25T08:12:19.839Z,158.83
2018-11-25T08:14:49.580Z,157.77
2018-11-25T08:17:19.568Z,156.13
2018-11-25T08:19:49.389Z,154.60
2018-11-25T08:22:20.260Z,157.67
2018-11-25T08:24:50.232Z,156.70
2018-11-25T08:27:20.553Z,160.53
2018-11-25T08:29:50.476Z,153.70
2018-11-25T08:32:20.513Z,150.23
2018-11-25T08:34:50.880Z,151.30
2018-11-25T08:37:21.594Z,151.00
2018-11-25T08:39:51.995Z,155.00
2018-11-25T08:42:21.759Z,160.80
2018-11-25T08:44:52.210Z,157.30
2018-11-25T08:47:22.237Z,154.27
2018-11-25T08:49:52.989Z,152.97
2018-11-25T08:52:23.409Z,156.40
2018-11-25T08:54:54.927Z,152.90
2018-11-25T08:57:24.993Z,160.00
2018-11-25T08:59:55.564Z,153.33
2018-11-25T09:02:25.717Z,151.23
2018-11-25T09:04:56.205Z,154.53
2018-11-25T09:07:26.725Z,152.80
2018-11-25T09:09:57.163Z,157.50
2018-11-25T09:12:27.236Z,150.93
2018-11-25T09:14:58.570Z,148.87
2018-11-25T09:17:28.525Z,152.20
2018-11-25T09:19:59.996Z,154.70
2018-11-25T09:22:30.166Z,154.67
2018-11-25T09:25:00.792Z,155.47
2018-11-25T09:27:31.531Z,154.87
2018-11-25T09:30:01.604Z,159.20
2018-11-25T09:32:31.523Z,152.50
2018-11-25T09:35:02.550Z,153.80
2018-11-25T09:37:32.800Z,156.53
2018-11-25T09:40:02.637Z,157.50
2018-11-25T09:42:33.286Z,158.63
2018-11-25T09:45:03.229Z,172.80
2018-11-25T09:47:33.913Z,158.33
2018-11-25T09:50:03.925Z,181.93
2018-11-25T09:52:36.165Z,176.57
2018-11-25T09:55:07.195Z,156.17
2018-11-25T09:57:37.364Z,158.10
2018-11-25T10:00:07.363Z,150.20
2018-11-25T10:02:37.430Z,151.00
2018-11-25T10:05:07.880Z,152.03
2018-11-25T10:07:37.953Z,151.97
2018-11-25T10:10:07.762Z,148.53
2018-11-25T10:12:37.532Z,158.13
2018-11-25T10:15:07.574Z,155.93
2018-11-25T10:17:37.805Z,145.30
2018-11-25T10:20:07.485Z,152.73
2018-11-25T10:22:37.282Z,150.87
2018-11-25T10:25:12.274Z,147.73
2018-11-25T10:27:42.886Z,149.93
2018-11-25T10:30:12.690Z,149.67
2018-11-25T10:32:43.198Z,150.57
2018-11-25T10:35:13.007Z,152.27
2018-11-25T10:43:02.058Z,155.43
2018-11-25T10:45:32.282Z,153.00
2018-11-25T10:48:03.000Z,155.13
2018-11-25T10:50:33.271Z,154.80
2018-11-25T10:53:04.000Z,155.60
2018-11-25T10:55:34.083Z,156.60
2018-11-25T10:58:04.594Z,159.17
2018-11-25T11:00:34.609Z,153.23
2018-11-25T11:03:04.404Z,153.57
2018-11-25T11:05:34.122Z,154.63
2018-11-25T11:08:04.688Z,154.33
2018-11-25T11:10:34.884Z,151.60
2018-11-25T11:13:05.295Z,152.37
2018-11-25T11:15:35.370Z,160.07
2018-11-25T11:18:05.358Z,150.77
2018-11-25T11:20:35.154Z,155.53
2018-11-25T11:23:05.371Z,166.70
2018-11-25T11:25:35.352Z,166.27
2018-11-25T11:28:04.979Z,158.40
2018-11-25T11:30:35.204Z,157.47
2018-11-25T11:33:05.606Z,153.87
2018-11-25T11:35:35.850Z,155.70
2018-11-25T11:38:05.921Z,153.07
2018-11-25T11:40:35.398Z,159.77
2018-11-25T11:43:05.759Z,162.27
2018-11-25T11:45:35.721Z,158.97
2018-11-25T11:48:05.774Z,158.63
2018-11-25T11:50:35.967Z,158.37
2018-11-25T11:53:05.907Z,164.40
2018-11-25T11:55:36.308Z,161.43
2018-11-25T11:58:06.342Z,188.70
2018-11-25T12:00:36.670Z,182.17
2018-11-25T12:03:06.876Z,193.03
2018-11-25T12:05:37.276Z,187.90
2018-11-25T12:08:07.632Z,211.13
2018-11-25T12:10:37.842Z,211.20
2018-11-25T12:13:08.886Z,208.63
2018-11-25T12:15:38.878Z,214.43
2018-11-25T12:18:08.828Z,216.23
2018-11-25T12:20:38.804Z,218.47
2018-11-25T12:23:08.846Z,214.40
2018-11-25T12:25:39.215Z,213.03
2018-11-25T12:28:08.988Z,210.43
2018-11-25T12:30:38.952Z,201.20
2018-11-25T12:33:09.435Z,210.13
2018-11-25T12:35:39.531Z,221.43
2018-11-25T12:38:09.770Z,275.50
2018-11-25T12:40:40.203Z,280.50
2018-11-25T12:43:10.701Z,323.13
2018-11-25T12:45:40.450Z,290.67
2018-11-25T12:48:10.952Z,270.77
2018-11-25T12:50:41.440Z,292.57
2018-11-25T12:53:11.837Z,297.40
2018-11-25T12:55:43.291Z,304.77
2018-11-25T12:58:13.759Z,292.43
2018-11-25T13:00:43.873Z,347.70
2018-11-25T13:03:14.232Z,302.63
2018-11-25T13:05:46.249Z,322.43
2018-11-25T13:08:15.724Z,308.67
2018-11-25T13:10:45.429Z,315.80
2018-11-25T13:13:15.871Z,302.20
2018-11-25T13:15:45.805Z,306.90
2018-11-25T13:18:16.365Z,307.90
2018-11-25T13:20:46.291Z,278.30
2018-11-25T13:23:16.281Z,272.27
2018-11-25T13:25:46.905Z,265.87
2018-11-25T13:28:17.350Z,259.20
2018-11-25T13:30:46.994Z,252.23
2018-11-25T13:33:17.677Z,256.00
2018-11-25T13:35:48.150Z,247.63
2018-11-25T13:38:18.557Z,247.53
2018-11-25T13:40:49.528Z,263.10
2018-11-25T13:43:20.653Z,288.90
2018-11-25T13:45:51.079Z,255.30
2018-11-25T13:48:21.813Z,276.73
2018-11-25T13:50:51.852Z,258.07
2018-11-25T13:53:21.959Z,280.77
2018-11-25T13:55:51.563Z,287.03
2018-11-25T13:58:21.896Z,293.07
2018-11-25T14:00:52.823Z,298.90
2018-11-25T14:03:23.316Z,275.40
2018-11-25T14:05:54.927Z,303.23
2018-11-25T14:08:25.287Z,296.57
2018-11-25T14:10:56.042Z,295.73
2018-11-25T14:13:26.394Z,278.57
2018-11-25T14:15:56.961Z,270.57
2018-11-25T14:18:26.719Z,254.83
2018-11-25T14:20:57.418Z,281.80
2018-11-25T14:23:27.859Z,273.93
2018-11-25T14:25:58.091Z,258.63
2018-11-25T14:28:28.798Z,260.13
2018-11-25T14:30:58.637Z,254.37
2018-11-25T14:33:29.380Z,257.30
2018-11-25T14:35:59.309Z,253.97
2018-11-25T14:38:30.850Z,252.87
2018-11-25T14:41:01.445Z,251.43
2018-11-25T14:43:31.047Z,243.43
2018-11-25T14:46:01.346Z,250.53
2018-11-25T14:48:30.822Z,245.20
2018-11-25T14:51:00.769Z,249.13
2018-11-25T14:53:31.790Z,244.97
2018-11-25T14:56:04.260Z,244.33
2018-11-25T14:58:34.279Z,246.97
2018-11-25T15:01:05.945Z,244.47
2018-11-25T15:03:36.209Z,265.17
2018-11-25T15:06:06.172Z,253.97
2018-11-25T15:08:36.519Z,243.23
2018-11-25T15:11:06.645Z,242.17
2018-11-25T15:13:36.642Z,248.23
2018-11-25T15:16:06.885Z,241.07
2018-11-25T15:18:37.294Z,233.77
2018-11-25T15:21:07.597Z,232.33
2018-11-25T15:23:38.624Z,240.70
2018-11-25T15:26:08.480Z,243.57
2018-11-25T15:28:38.835Z,246.30
2018-11-25T15:33:52.328Z,261.03
2018-11-25T15:36:22.237Z,279.03
2018-11-25T15:38:53.118Z,269.30
2018-11-25T15:41:23.076Z,265.67
2018-11-25T15:43:53.284Z,251.13
2018-11-25T15:46:23.198Z,257.97
2018-11-25T15:48:53.754Z,251.23
2018-11-25T15:51:23.890Z,246.37
2018-11-25T15:53:53.881Z,247.33
2018-11-25T15:56:24.340Z,250.13
2018-11-25T15:58:54.546Z,251.07
2018-11-25T16:01:24.567Z,264.23
2018-11-25T16:03:54.347Z,268.63
2018-11-25T16:06:24.405Z,257.70
2018-11-25T16:08:54.526Z,254.93
2018-11-25T16:11:24.375Z,260.17
2018-11-25T16:13:54.448Z,252.17
2018-11-25T16:16:24.731Z,252.93
2018-11-25T16:18:55.037Z,258.97
2018-11-25T16:21:25.205Z,275.13
2018-11-25T16:23:55.036Z,254.03
2018-11-25T16:26:25.728Z,270.53
2018-11-25T16:28:55.469Z,263.33
2018-11-25T16:31:25.688Z,256.57
2018-11-25T16:33:55.286Z,274.83
2018-11-25T16:36:25.329Z,253.57
2018-11-25T16:38:55.426Z,293.47
2018-11-25T16:41:25.565Z,279.70
2018-11-25T16:43:55.591Z,276.27
2018-11-25T16:46:26.050Z,272.73
2018-11-25T16:48:56.070Z,261.97
2018-11-25T16:51:26.399Z,285.27
2018-11-25T16:53:55.836Z,284.17
2018-11-25T16:56:25.667Z,278.80
2018-11-25T16:58:55.353Z,262.07
2018-11-25T17:01:25.593Z,265.97
2018-11-25T17:03:55.427Z,258.27
2018-11-25T17:06:27.196Z,254.07
2018-11-25T17:08:57.065Z,258.53
2018-11-25T17:11:27.053Z,269.73
2018-11-25T17:13:56.842Z,280.00
2018-11-25T17:16:27.194Z,264.90
2018-11-25T17:18:57.032Z,259.57
2018-11-25T17:21:27.360Z,256.33
2018-11-25T17:23:56.995Z,273.07
2018-11-25T17:26:26.676Z,264.63
2018-11-25T17:28:57.014Z,267.67
2018-11-25T17:31:26.925Z,260.10
2018-11-25T17:33:56.728Z,265.53
2018-11-25T17:36:26.719Z,261.33
2018-11-25T17:38:56.563Z,253.80
2018-11-25T17:41:28.324Z,250.93
2018-11-25T17:43:58.440Z,260.43
2018-11-25T17:46:28.315Z,258.67
2018-11-25T17:48:58.161Z,257.40
2018-11-25T17:51:28.519Z,257.83
2018-11-25T17:53:58.567Z,258.30
2018-11-25T17:56:28.509Z,259.57
2018-11-25T17:58:57.999Z,254.40
2018-11-25T18:01:28.041Z,252.63
2018-11-25T18:03:58.076Z,262.43
2018-11-25T18:06:28.029Z,251.20
2018-11-25T18:08:58.564Z,251.23
2018-11-25T18:11:28.836Z,241.87
2018-11-25T18:13:58.483Z,243.47
2018-11-25T18:16:28.803Z,243.77
2018-11-25T18:18:58.677Z,245.10
2018-11-25T18:21:28.807Z,247.63
2018-11-25T18:23:59.041Z,240.60
2018-11-25T18:26:29.022Z,240.20
2018-11-25T18:28:59.229Z,238.67
2018-11-25T18:31:28.953Z,238.60
2018-11-25T18:33:58.784Z,239.97
2018-11-25T18:36:28.801Z,240.23
2018-11-25T18:38:58.586Z,242.90
2018-11-25T18:41:28.637Z,245.53
2018-11-25T18:43:59.052Z,250.50
2018-11-25T18:46:29.760Z,246.77
2018-11-25T18:49:00.307Z,251.77
2018-11-25T18:51:30.882Z,242.67
2018-11-25T18:54:01.607Z,243.03
2018-11-25T18:56:31.486Z,244.77
2018-11-25T18:59:01.792Z,249.90
2018-11-25T19:01:31.511Z,243.70
2018-11-25T19:04:01.641Z,242.77
2018-11-25T19:06:31.239Z,254.10
2018-11-25T19:09:02.078Z,254.07
2018-11-25T19:11:32.163Z,260.60
2018-11-25T19:14:02.564Z,270.40
2018-11-25T19:16:32.024Z,264.70
2018-11-25T19:19:02.442Z,300.27
2018-11-25T19:21:31.988Z,277.70
2018-11-25T19:24:01.444Z,286.57
2018-11-25T19:26:31.675Z,311.53
2018-11-25T19:29:01.440Z,294.37
2018-11-25T19:31:31.684Z,268.83
2018-11-25T19:34:01.111Z,268.67
2018-11-25T19:36:31.116Z,263.00
2018-11-25T19:39:00.635Z,256.97
2018-11-25T19:41:30.882Z,242.43
2018-11-25T19:44:01.597Z,241.53
2018-11-25T19:46:31.780Z,237.90
2018-11-25T19:49:02.036Z,229.00
2018-11-25T19:51:32.307Z,226.90
2018-11-25T19:54:02.242Z,233.17
2018-11-25T19:56:32.180Z,226.40
2018-11-25T19:59:02.612Z,219.47
2018-11-25T20:01:32.961Z,217.90
2018-11-25T20:04:03.570Z,223.10
2018-11-25T20:06:34.111Z,228.80
2018-11-25T20:09:05.276Z,220.87
2018-11-25T20:11:35.382Z,217.50
2018-11-25T20:14:05.629Z,216.33
2018-11-25T20:16:35.877Z,211.63
2018-11-25T20:19:05.949Z,209.40
2018-11-25T20:21:36.046Z,213.50
2018-11-25T20:24:05.993Z,206.40
2018-11-25T20:26:36.509Z,213.27
2018-11-25T20:29:06.554Z,218.90
2018-11-25T20:31:36.224Z,211.20
2018-11-25T20:34:06.507Z,213.13
2018-11-25T20:36:36.043Z,201.43
2018-11-25T20:39:06.563Z,214.70
2018-11-25T20:41:36.161Z,223.57
2018-11-25T20:44:06.307Z,222.73
2018-11-25T20:46:36.005Z,212.67
2018-11-25T20:49:05.841Z,208.47
2018-11-25T20:51:35.635Z,205.93
2018-11-25T20:54:06.723Z,200.20
2018-11-25T20:56:36.962Z,203.00
2018-11-25T20:59:07.431Z,198.20
2018-11-25T21:01:37.646Z,208.87
2018-11-25T21:04:07.722Z,204.13
2018-11-25T21:06:37.752Z,208.87
2018-11-25T21:09:08.182Z,217.57
2018-11-25T21:11:38.643Z,201.47
2018-11-25T21:14:08.406Z,198.03
2018-11-25T21:16:38.757Z,199.50
2018-11-25T21:19:08.683Z,209.90
2018-11-25T21:21:39.227Z,202.43
2018-11-25T21:24:08.956Z,209.03
2018-11-25T21:26:39.144Z,200.57
2018-11-25T21:29:09.465Z,207.53
2018-11-25T21:31:39.719Z,199.37
2018-11-25T21:34:09.784Z,191.27
2018-11-25T21:36:40.637Z,194.97
2018-11-25T21:39:10.647Z,191.63
2018-11-25T21:41:41.122Z,194.63
2018-11-25T21:44:11.004Z,199.60
2018-11-25T21:46:41.127Z,194.40
2018-11-25T21:49:11.000Z,190.47
2018-11-25T21:51:41.067Z,184.47
2018-11-25T21:54:11.246Z,187.00
2018-11-25T21:56:41.275Z,186.00
2018-11-25T21:59:11.363Z,179.37
2018-11-25T22:01:41.923Z,188.40
2018-11-25T22:04:12.033Z,187.77
2018-11-25T22:06:42.288Z,180.40
2018-11-25T22:09:12.722Z,194.07
2018-11-25T22:11:42.805Z,205.77
2018-11-25T22:14:12.807Z,191.60
2018-11-25T22:16:42.236Z,192.00
2018-11-25T22:19:12.645Z,187.53
2018-11-25T22:21:42.886Z,189.30
2018-11-25T22:24:13.275Z,198.23
2018-11-25T22:26:43.663Z,181.33
2018-11-25T22:29:13.583Z,202.80
2018-11-25T22:31:43.568Z,191.20
2018-11-25T22:34:14.081Z,196.60
2018-11-25T22:36:44.848Z,192.60
2018-11-25T22:39:14.774Z,212.67
2018-11-25T22:41:44.775Z,197.13
2018-11-25T22:44:14.842Z,199.53
2018-11-25T22:46:44.728Z,203.70
2018-11-25T22:49:14.805Z,201.73
2018-11-25T22:51:44.844Z,207.43
2018-11-25T22:54:15.189Z,216.40
2018-11-25T22:56:45.147Z,210.77
2018-11-25T22:59:14.875Z,206.60
2018-11-25T23:01:44.967Z,205.00
2018-11-25T23:04:14.586Z,215.00
2018-11-25T23:06:44.801Z,205.43
2018-11-25T23:09:15.350Z,224.13
2018-11-25T23:11:45.712Z,228.30
2018-11-25T23:14:15.507Z,227.23
2018-11-25T23:16:45.760Z,212.83
2018-11-25T23:19:15.837Z,213.30
2018-11-25T23:21:45.959Z,220.03
2018-11-25T23:24:16.001Z,222.07
2018-11-25T23:26:46.908Z,220.07
2018-11-25T23:29:16.959Z,222.63
2018-11-25T23:31:46.806Z,259.70
2018-11-25T23:34:16.853Z,232.87
2018-11-25T23:36:46.848Z,215.30
2018-11-25T23:39:17.547Z,203.80
2018-11-25T23:41:47.522Z,243.83
2018-11-25T23:44:17.325Z,214.83
2018-11-25T23:46:47.480Z,208.87
2018-11-25T23:49:17.371Z,203.40
2018-11-25T23:51:47.365Z,205.70
2018-11-25T23:54:17.310Z,201.47
2018-11-25T23:56:47.681Z,202.93
2018-11-25T23:59:17.320Z,216.30
